South Timbalier Oil Rig, Louisiana
Current Conditions -  °F | °C
As of 12:15 PM on Friday 19 Dec 2014 (Local Time) from KSQE Reporting Station
Overcast Overcast  
Wind Chill: 70°   Ceiling: 700
Heat Index: 70°   Visibility: 10mi
Dew Point: 66°   Wind: 3mph
Humidity: 88%   Direction: NA
Pressure: 30.02"   Gusts: 13mph
Location:  28.15°N, 90.72°W
Report Text: KSQE 191815Z AUTO VRB03G11KT 10SM BKN007 OVC070 21/19 A3002 RMK A01
Loading
Personal Weather Stations






























Interactive Weather Map New forecast layout! Learn more

10-Day Weather Forecast

Advertisements
Track Severe Weather on mobile